createdAt,value
2022-09-23T00:00:49.438Z,2.23
2022-09-23T00:03:16.583Z,2.37
2022-09-23T00:05:43.477Z,2.30
2022-09-23T00:08:12.011Z,2.67
2022-09-23T00:10:39.778Z,2.67
2022-09-23T00:13:06.819Z,2.53
2022-09-23T00:15:38.930Z,2.67
2022-09-23T00:18:05.903Z,2.40
2022-09-23T00:20:34.492Z,2.60
2022-09-23T00:23:01.356Z,3.10
2022-09-23T00:25:29.641Z,2.97
2022-09-23T00:27:56.899Z,2.83
2022-09-23T00:30:23.638Z,3.10
2022-09-23T00:32:50.326Z,2.90
2022-09-23T00:35:17.161Z,3.00
2022-09-23T00:37:43.550Z,2.80
2022-09-23T00:40:12.304Z,2.97
2022-09-23T00:42:46.332Z,2.90
2022-09-23T00:45:12.919Z,3.70
2022-09-23T00:47:54.793Z,3.37
2022-09-23T00:50:28.202Z,3.33
2022-09-23T00:52:57.726Z,3.27
2022-09-23T00:55:33.364Z,3.47
2022-09-23T00:58:03.490Z,3.47
2022-09-23T01:00:29.979Z,3.70
2022-09-23T01:02:56.426Z,3.00
2022-09-23T01:05:23.485Z,3.60
2022-09-23T01:07:50.839Z,3.27
2022-09-23T01:10:18.551Z,3.30
2022-09-23T01:12:56.830Z,3.50
2022-09-23T01:15:32.451Z,3.20
2022-09-23T01:18:34.950Z,2.93
2022-09-23T01:21:30.034Z,3.00
2022-09-23T01:24:24.423Z,2.80
2022-09-23T01:27:10.306Z,3.23
2022-09-23T01:29:48.615Z,2.93
2022-09-23T01:32:46.993Z,2.80
2022-09-23T01:35:43.054Z,2.57
2022-09-23T01:38:31.087Z,3.37
2022-09-23T01:41:15.388Z,2.90
2022-09-23T01:43:47.842Z,2.67
2022-09-23T01:46:32.950Z,2.37
2022-09-23T01:49:23.973Z,2.87
2022-09-23T01:51:57.499Z,3.07
2022-09-23T01:54:38.826Z,3.50
2022-09-23T01:57:14.727Z,3.67
2022-09-23T01:59:47.535Z,5.60
2022-09-23T02:02:28.268Z,4.53
2022-09-23T02:05:01.726Z,3.87
2022-09-23T02:07:46.519Z,3.03
2022-09-23T02:10:16.568Z,2.50
2022-09-23T02:12:47.352Z,2.20
2022-09-23T02:15:19.136Z,2.60
2022-09-23T02:17:55.707Z,2.73
2022-09-23T02:20:34.435Z,2.00
2022-09-23T02:23:11.386Z,2.17
2022-09-23T02:25:50.837Z,2.00
2022-09-23T02:28:30.888Z,2.50
2022-09-23T02:31:29.475Z,2.40
2022-09-23T02:34:26.631Z,2.47
2022-09-23T02:37:03.340Z,2.40
2022-09-23T02:39:39.750Z,2.50
2022-09-23T02:42:12.664Z,2.57
2022-09-23T02:44:40.569Z,2.43
2022-09-23T02:47:07.606Z,2.03
2022-09-23T02:49:36.468Z,2.60
2022-09-23T02:52:05.544Z,2.70
2022-09-23T02:54:33.829Z,2.80
2022-09-23T02:57:02.738Z,2.77
2022-09-23T02:59:30.870Z,2.63
2022-09-23T03:02:17.906Z,3.10
2022-09-23T03:05:24.701Z,2.70
2022-09-23T03:08:19.528Z,2.50
2022-09-23T03:11:04.343Z,2.93
2022-09-23T03:13:56.007Z,2.47
2022-09-23T03:16:40.473Z,2.30
2022-09-23T03:19:27.437Z,2.63
2022-09-23T03:21:56.939Z,2.70
2022-09-23T03:24:25.155Z,2.77
2022-09-23T03:26:54.594Z,2.90
2022-09-23T03:29:22.653Z,3.20
2022-09-23T03:31:49.164Z,2.87
2022-09-23T03:34:26.944Z,2.53
2022-09-23T03:37:20.462Z,3.10
2022-09-23T03:39:52.959Z,3.40
2022-09-23T03:42:23.272Z,3.60
2022-09-23T03:44:54.279Z,3.27
2022-09-23T03:47:21.453Z,2.53
2022-09-23T03:49:49.491Z,2.83
2022-09-23T03:52:17.916Z,3.07
2022-09-23T03:54:44.656Z,2.73
2022-09-23T03:57:12.069Z,2.90
2022-09-23T03:59:38.765Z,3.23
2022-09-23T04:02:07.647Z,2.40
2022-09-23T04:04:37.501Z,2.80
2022-09-23T04:07:04.174Z,3.30
2022-09-23T04:09:31.091Z,2.33
2022-09-23T04:11:57.522Z,2.63
2022-09-23T04:14:24.285Z,3.07
2022-09-23T04:16:51.218Z,3.17
2022-09-23T04:19:17.961Z,3.00
2022-09-23T04:21:45.339Z,2.87
2022-09-23T04:24:12.507Z,2.93
2022-09-23T04:26:39.726Z,2.90
2022-09-23T04:29:06.992Z,3.00
2022-09-23T04:31:34.283Z,3.13
2022-09-23T04:34:00.997Z,3.30
2022-09-23T04:36:29.143Z,3.13
2022-09-23T04:38:56.349Z,3.10
2022-09-23T04:41:23.167Z,2.87
2022-09-23T04:43:49.753Z,3.73
2022-09-23T04:46:16.433Z,3.33
2022-09-23T04:48:43.366Z,4.07
2022-09-23T04:51:21.518Z,4.17
2022-09-23T04:53:50.565Z,4.07
2022-09-23T04:56:20.066Z,4.13
2022-09-23T04:58:46.772Z,4.07
2022-09-23T05:01:19.326Z,4.03
2022-09-23T05:03:46.832Z,3.73
2022-09-23T05:06:14.562Z,3.57
2022-09-23T05:08:46.063Z,3.27
2022-09-23T05:11:12.552Z,3.90
2022-09-23T05:13:38.948Z,3.77
2022-09-23T05:16:08.768Z,4.07
2022-09-23T05:18:36.707Z,3.90
2022-09-23T05:21:03.759Z,3.77
2022-09-23T05:23:30.765Z,3.80
2022-09-23T05:26:02.888Z,3.90
2022-09-23T05:28:32.865Z,3.33
2022-09-23T05:31:19.428Z,3.53
2022-09-23T05:33:58.663Z,5.13
2022-09-23T05:36:26.640Z,3.60
2022-09-23T05:38:56.463Z,3.50
2022-09-23T05:41:24.015Z,3.23
2022-09-23T05:43:51.805Z,3.70
2022-09-23T05:46:21.145Z,3.83
2022-09-23T05:48:47.954Z,3.97
2022-09-23T05:51:18.392Z,3.13
2022-09-23T05:53:45.425Z,3.80
2022-09-23T05:56:13.077Z,3.50
2022-09-23T05:58:39.692Z,4.07
2022-09-23T06:01:10.914Z,4.00
2022-09-23T06:03:37.772Z,3.53
2022-09-23T06:06:04.525Z,3.20
2022-09-23T06:08:31.865Z,3.13
2022-09-23T06:10:58.422Z,3.30
2022-09-23T06:13:27.079Z,3.33
2022-09-23T06:15:57.958Z,3.60
2022-09-23T06:18:24.445Z,3.53
2022-09-23T06:20:50.907Z,3.33
2022-09-23T06:23:17.544Z,3.60
2022-09-23T06:25:43.970Z,4.07
2022-09-23T06:28:12.098Z,3.87
2022-09-23T06:30:39.781Z,3.60
2022-09-23T06:33:06.206Z,3.87
2022-09-23T06:35:33.266Z,3.47
2022-09-23T06:38:03.802Z,3.70
2022-09-23T06:40:31.191Z,4.90
2022-09-23T06:42:59.032Z,4.43
2022-09-23T06:45:27.090Z,3.73
2022-09-23T06:47:56.251Z,3.60
2022-09-23T06:50:24.074Z,3.20
2022-09-23T06:52:52.482Z,3.93
2022-09-23T06:55:18.896Z,4.30
2022-09-23T06:57:45.297Z,4.80
2022-09-23T07:00:13.164Z,4.20
2022-09-23T07:02:42.029Z,3.43
2022-09-23T07:05:09.438Z,3.80
2022-09-23T07:07:39.370Z,3.05
2022-09-23T07:10:07.175Z,3.60
2022-09-23T07:12:34.080Z,3.90
2022-09-23T07:15:00.702Z,3.78
2022-09-23T07:17:27.553Z,3.20
2022-09-23T07:19:55.054Z,3.47
2022-09-23T07:22:26.395Z,3.97
2022-09-23T07:24:57.083Z,3.50
2022-09-23T07:27:27.554Z,3.90
2022-09-23T07:29:54.972Z,4.10
2022-09-23T07:32:22.926Z,3.15
2022-09-23T07:34:49.906Z,3.10
2022-09-23T07:37:17.565Z,3.47
2022-09-23T07:39:45.358Z,3.47
2022-09-23T07:42:13.182Z,3.67
2022-09-23T07:44:41.972Z,3.88
2022-09-23T07:47:11.280Z,3.47
2022-09-23T07:49:38.444Z,4.07
2022-09-23T07:52:05.180Z,4.40
2022-09-23T07:54:31.971Z,3.42
2022-09-23T07:56:58.945Z,3.45
2022-09-23T07:59:27.237Z,3.47
2022-09-23T08:01:54.853Z,3.33
2022-09-23T08:04:25.293Z,3.00
2022-09-23T08:06:57.686Z,3.35
2022-09-23T08:09:27.942Z,3.10
2022-09-23T08:12:02.264Z,3.00
2022-09-23T08:14:28.918Z,2.80
2022-09-23T08:16:55.351Z,2.83
2022-09-23T08:19:21.967Z,2.50
2022-09-23T08:21:52.000Z,3.03
2022-09-23T08:24:20.898Z,2.70
2022-09-23T08:26:48.185Z,3.35
2022-09-23T08:29:19.059Z,2.70
2022-09-23T08:31:45.912Z,2.53
2022-09-23T08:34:12.795Z,2.75
2022-09-23T08:36:39.584Z,2.35
2022-09-23T08:39:06.795Z,2.53
2022-09-23T08:41:42.416Z,1.88
2022-09-23T08:44:18.161Z,2.15
2022-09-23T08:46:53.271Z,1.95
2022-09-23T08:49:33.354Z,2.20
2022-09-23T08:52:09.792Z,2.25
2022-09-23T08:54:36.217Z,1.80
2022-09-23T08:57:06.471Z,1.85
2022-09-23T08:59:44.002Z,1.73
2022-09-23T09:02:19.281Z,1.50
2022-09-23T09:05:09.991Z,1.48
2022-09-23T09:07:40.382Z,1.73
2022-09-23T09:10:25.288Z,2.50
2022-09-23T09:13:03.101Z,1.50
2022-09-23T09:15:29.880Z,1.67
2022-09-23T09:17:56.558Z,1.33
2022-09-23T09:20:35.138Z,1.00
2022-09-23T09:23:17.007Z,1.20
2022-09-23T09:25:49.675Z,1.08
2022-09-23T09:28:24.634Z,0.80
2022-09-23T09:30:56.450Z,0.98
2022-09-23T09:33:35.065Z,0.90
2022-09-23T09:36:19.418Z,1.00
2022-09-23T09:38:46.769Z,0.90
2022-09-23T09:41:21.424Z,0.88
2022-09-23T09:43:57.574Z,0.60
2022-09-23T09:46:34.179Z,0.88
2022-09-23T09:49:28.471Z,0.90
2022-09-23T09:52:26.085Z,1.08
2022-09-23T09:54:53.250Z,1.05
2022-09-23T09:57:30.731Z,0.93
2022-09-23T10:00:19.547Z,0.93
2022-09-23T10:02:46.810Z,0.95
2022-09-23T10:05:33.355Z,1.10
2022-09-23T10:08:22.314Z,1.17
2022-09-23T10:10:59.648Z,0.88
2022-09-23T10:13:27.401Z,1.58
2022-09-23T10:15:54.919Z,0.90
2022-09-23T10:18:30.289Z,1.00
2022-09-23T10:21:02.989Z,1.13
2022-09-23T10:23:33.271Z,1.20
2022-09-23T10:26:05.241Z,1.27
2022-09-23T10:28:52.844Z,0.98
2022-09-23T10:31:25.996Z,1.10
2022-09-23T10:34:01.320Z,1.00
2022-09-23T10:36:32.842Z,1.02
2022-09-23T10:39:21.081Z,1.10
2022-09-23T10:42:20.598Z,0.70
2022-09-23T10:45:38.632Z,0.70
2022-09-23T10:48:27.066Z,0.80
2022-09-23T10:50:55.541Z,0.88
2022-09-23T10:53:28.845Z,0.77
2022-09-23T10:55:55.197Z,0.80
2022-09-23T10:58:50.365Z,0.90
2022-09-23T11:01:39.643Z,0.60
2022-09-23T11:04:31.726Z,0.63
2022-09-23T11:07:27.366Z,0.88
2022-09-23T11:10:45.531Z,0.65
2022-09-23T11:13:13.149Z,0.80
2022-09-23T11:15:59.810Z,0.88
2022-09-23T11:18:35.479Z,0.70
2022-09-23T11:21:06.736Z,1.10
2022-09-23T11:23:56.797Z,1.00
2022-09-23T11:26:33.239Z,1.20
2022-09-23T11:29:11.929Z,1.30
2022-09-23T11:32:01.720Z,1.10
2022-09-23T11:34:51.152Z,1.00
2022-09-23T11:37:28.647Z,1.30
2022-09-23T11:40:01.070Z,1.23
2022-09-23T11:42:33.555Z,0.90
2022-09-23T11:45:07.359Z,1.17
2022-09-23T11:47:42.417Z,1.40
2022-09-23T11:50:18.957Z,1.27
2022-09-23T11:52:51.905Z,1.02
2022-09-23T11:55:25.239Z,1.00
2022-09-23T11:57:55.243Z,1.08
2022-09-23T12:00:23.903Z,0.93
2022-09-23T12:03:06.596Z,1.30
2022-09-23T12:05:39.267Z,1.05
2022-09-23T12:08:11.760Z,1.02
2022-09-23T12:10:58.659Z,1.00
2022-09-23T12:13:55.562Z,0.85
2022-09-23T12:16:40.374Z,1.08
2022-09-23T12:19:34.564Z,0.65
2022-09-23T12:22:27.739Z,0.80
2022-09-23T12:25:10.265Z,0.90
2022-09-23T12:27:42.046Z,0.80
2022-09-23T12:30:26.674Z,0.80
2022-09-23T12:32:54.824Z,1.00
2022-09-23T12:35:43.088Z,1.23
2022-09-23T12:38:31.519Z,0.80
2022-09-23T12:40:59.366Z,1.33
2022-09-23T12:43:30.286Z,1.00
2022-09-23T12:46:27.250Z,1.17
2022-09-23T12:48:55.949Z,1.00
2022-09-23T12:51:23.097Z,1.10
2022-09-23T12:53:56.064Z,0.80
2022-09-23T12:56:26.503Z,0.80
2022-09-23T12:59:14.571Z,0.98
2022-09-23T13:01:41.451Z,0.95
2022-09-23T13:04:47.649Z,0.73
2022-09-23T13:07:17.569Z,1.02
2022-09-23T13:09:49.608Z,0.77
2022-09-23T13:12:31.048Z,1.00
2022-09-23T13:15:03.367Z,0.90
2022-09-23T13:17:36.626Z,1.15
2022-09-23T13:20:21.098Z,1.00
2022-09-23T13:22:53.622Z,0.95
2022-09-23T13:25:26.286Z,0.70
2022-09-23T13:27:58.841Z,0.80
2022-09-23T13:30:26.981Z,1.70
2022-09-23T13:33:05.074Z,1.20
2022-09-23T13:35:37.907Z,0.85
2022-09-23T13:38:26.269Z,0.75
2022-09-23T13:41:00.358Z,1.00
2022-09-23T13:43:41.562Z,1.48
2022-09-23T13:46:30.160Z,0.90
2022-09-23T13:48:57.100Z,0.60
2022-09-23T13:51:27.808Z,1.13
2022-09-23T13:53:56.538Z,1.00
2022-09-23T13:56:24.997Z,2.00
2022-09-23T13:58:52.251Z,1.10
2022-09-23T14:01:33.288Z,0.80
2022-09-23T14:04:00.442Z,1.10
2022-09-23T14:06:27.370Z,0.90
2022-09-23T14:08:55.143Z,0.88
2022-09-23T14:11:35.050Z,0.90
2022-09-23T14:14:07.922Z,0.80
2022-09-23T14:16:40.723Z,0.80
2022-09-23T14:19:11.438Z,1.13
2022-09-23T14:21:40.014Z,1.40
2022-09-23T14:24:35.764Z,1.25
2022-09-23T14:27:08.455Z,1.60
2022-09-23T14:29:40.368Z,1.20
2022-09-23T14:32:23.830Z,0.90
2022-09-23T14:34:56.270Z,1.10
2022-09-23T14:37:56.398Z,0.85
2022-09-23T14:40:31.287Z,1.10
2022-09-23T14:43:25.671Z,1.30
2022-09-23T14:46:01.310Z,1.13
2022-09-23T14:48:32.707Z,1.10
2022-09-23T14:51:06.147Z,1.15
2022-09-23T14:53:32.825Z,1.00
2022-09-23T14:56:08.517Z,1.20
2022-09-23T14:58:52.250Z,1.77
2022-09-23T15:01:31.935Z,0.90
2022-09-23T15:04:21.414Z,1.20
2022-09-23T15:06:57.147Z,1.10
2022-09-23T15:09:33.491Z,1.00
2022-09-23T15:12:04.536Z,0.95
2022-09-23T15:14:39.572Z,0.90
2022-09-23T15:17:23.537Z,1.08
2022-09-23T15:19:57.151Z,1.20
2022-09-23T15:22:26.965Z,0.90
2022-09-23T15:24:55.742Z,1.00
2022-09-23T15:27:35.242Z,1.40
2022-09-23T15:30:15.046Z,0.90
2022-09-23T15:32:45.393Z,0.95
2022-09-23T15:35:21.460Z,1.10
2022-09-23T15:37:51.456Z,1.48
2022-09-23T15:40:25.022Z,1.30
2022-09-23T15:42:56.121Z,1.25
2022-09-23T15:45:30.578Z,0.80
2022-09-23T15:48:01.885Z,1.27
2022-09-23T15:50:29.677Z,1.13
2022-09-23T15:52:56.114Z,1.67
2022-09-23T15:55:23.533Z,1.40
2022-09-23T15:57:50.629Z,1.40
2022-09-23T16:00:17.459Z,1.80
2022-09-23T16:02:48.871Z,1.30
2022-09-23T16:05:37.863Z,1.20
2022-09-23T16:08:08.883Z,1.38
2022-09-23T16:10:37.367Z,1.30
2022-09-23T16:13:07.729Z,1.30
2022-09-23T16:15:34.472Z,1.50
2022-09-23T16:18:01.521Z,1.63
2022-09-23T16:20:29.754Z,1.20
2022-09-23T16:23:01.219Z,1.30
2022-09-23T16:25:30.315Z,1.52
2022-09-23T16:27:58.357Z,2.00
2022-09-23T16:30:26.813Z,1.27
2022-09-23T16:32:53.727Z,4.90
2022-09-23T16:35:21.544Z,3.97
2022-09-23T16:37:48.572Z,6.28
2022-09-23T16:40:19.831Z,7.03
2022-09-23T16:42:52.004Z,6.55
2022-09-23T16:45:22.921Z,6.38
2022-09-23T16:47:51.289Z,4.15
2022-09-23T16:50:20.507Z,4.97
2022-09-23T16:52:46.971Z,3.67
2022-09-23T16:55:18.243Z,4.00
2022-09-23T16:57:44.643Z,4.60
2022-09-23T17:00:33.783Z,5.18
2022-09-23T17:03:22.511Z,4.53
2022-09-23T17:06:09.086Z,14.20
2022-09-23T17:08:35.697Z,25.92
2022-09-23T17:11:02.215Z,16.42
2022-09-23T17:13:29.627Z,13.55
2022-09-23T17:15:56.194Z,9.95
2022-09-23T17:18:22.823Z,9.23
2022-09-23T17:21:00.387Z,7.32
2022-09-23T17:23:27.602Z,5.97
2022-09-23T17:25:54.419Z,6.75
2022-09-23T17:28:22.097Z,5.70
2022-09-23T17:30:56.522Z,6.60
2022-09-23T17:33:23.274Z,7.05
2022-09-23T17:35:49.834Z,5.57
2022-09-23T17:38:16.238Z,5.95
2022-09-23T17:40:50.068Z,6.63
2022-09-23T17:43:23.657Z,5.43
2022-09-23T17:45:55.414Z,5.93
2022-09-23T17:48:24.664Z,6.07
2022-09-23T17:50:56.348Z,7.68
2022-09-23T17:53:24.344Z,4.63
2022-09-23T17:56:01.993Z,4.57
2022-09-23T17:58:30.030Z,5.05
2022-09-23T18:00:57.488Z,5.75
2022-09-23T18:03:26.688Z,5.60
2022-09-23T18:05:53.155Z,4.95
2022-09-23T18:08:19.910Z,4.82
2022-09-23T18:10:47.023Z,5.20
2022-09-23T18:13:13.443Z,5.35
2022-09-23T18:15:40.353Z,4.97
2022-09-23T18:18:07.121Z,5.75
2022-09-23T18:20:33.583Z,5.82
2022-09-23T18:23:00.044Z,4.70
2022-09-23T18:25:39.100Z,4.90
2022-09-23T18:28:06.128Z,5.00
2022-09-23T18:30:34.666Z,4.55
2022-09-23T18:33:02.069Z,4.97
2022-09-23T18:35:28.653Z,5.03
2022-09-23T18:37:55.990Z,5.10
2022-09-23T18:40:22.481Z,4.60
2022-09-23T18:42:49.595Z,4.60
2022-09-23T18:45:15.994Z,4.93
2022-09-23T18:48:00.893Z,4.53
2022-09-23T18:50:39.382Z,5.38
2022-09-23T18:53:05.968Z,4.72
2022-09-23T18:55:36.553Z,5.03
2022-09-23T18:58:03.236Z,4.35
2022-09-23T19:00:29.908Z,5.80
2022-09-23T19:02:56.407Z,5.95
2022-09-23T19:05:22.918Z,4.97
2022-09-23T19:07:49.288Z,4.60
2022-09-23T19:10:15.760Z,4.35
2022-09-23T19:12:42.182Z,4.72
2022-09-23T19:15:09.193Z,4.68
2022-09-23T19:17:35.822Z,4.30
2022-09-23T19:20:02.254Z,4.97
2022-09-23T19:22:30.379Z,4.55
2022-09-23T19:24:56.767Z,4.70
2022-09-23T19:27:23.469Z,4.90
2022-09-23T19:29:50.233Z,4.70
2022-09-23T19:32:16.764Z,5.40
2022-09-23T19:34:43.618Z,5.43
2022-09-23T19:37:10.241Z,5.28
2022-09-23T19:39:37.608Z,5.35
2022-09-23T19:42:04.119Z,6.50
2022-09-23T19:44:30.670Z,6.20
2022-09-23T19:46:57.833Z,6.07
2022-09-23T19:49:25.439Z,6.50
2022-09-23T19:51:55.106Z,5.45
2022-09-23T19:54:21.863Z,6.75
2022-09-23T19:56:49.585Z,6.70
2022-09-23T19:59:18.851Z,7.60
2022-09-23T20:01:47.757Z,6.50
2022-09-23T20:04:15.636Z,5.72
2022-09-23T20:06:42.136Z,5.00
2022-09-23T20:09:08.671Z,5.65
2022-09-23T20:11:35.916Z,6.53
2022-09-23T20:14:06.135Z,6.22
2022-09-23T20:16:35.119Z,6.47
2022-09-23T20:19:03.103Z,6.57
2022-09-23T20:21:29.852Z,5.93
2022-09-23T20:23:57.329Z,6.20
2022-09-23T20:26:50.243Z,5.78
2022-09-23T20:29:16.891Z,6.15
2022-09-23T20:31:43.447Z,6.10
2022-09-23T20:34:10.609Z,6.15
2022-09-23T20:36:41.072Z,6.63
2022-09-23T20:39:07.893Z,5.82
2022-09-23T20:41:37.513Z,5.68
2022-09-23T20:44:07.387Z,6.13
2022-09-23T20:46:34.362Z,6.25
2022-09-23T20:49:01.895Z,5.90
2022-09-23T20:51:28.808Z,6.47
2022-09-23T20:53:55.263Z,5.90
2022-09-23T20:56:22.298Z,6.45
2022-09-23T20:58:50.349Z,6.72
2022-09-23T21:01:17.457Z,5.88
2022-09-23T21:03:46.038Z,6.03
2022-09-23T21:06:14.977Z,6.75
2022-09-23T21:08:43.377Z,5.57
2022-09-23T21:11:13.123Z,4.93
2022-09-23T21:13:39.637Z,4.82
2022-09-23T21:16:13.038Z,4.75
2022-09-23T21:18:39.635Z,5.00
2022-09-23T21:21:07.052Z,4.63
2022-09-23T21:23:35.879Z,5.28
2022-09-23T21:26:04.761Z,4.70
2022-09-23T21:28:42.613Z,4.68
2022-09-23T21:31:22.430Z,4.68
2022-09-23T21:33:54.594Z,4.80
2022-09-23T21:36:23.533Z,4.70
2022-09-23T21:38:50.704Z,4.60
2022-09-23T21:41:17.733Z,4.28
2022-09-23T21:43:44.474Z,4.25
2022-09-23T21:46:13.564Z,4.65
2022-09-23T21:48:42.100Z,4.85
2022-09-23T21:51:11.787Z,4.47
2022-09-23T21:53:39.525Z,4.43
2022-09-23T21:56:05.979Z,5.07
2022-09-23T21:58:45.569Z,4.85
2022-09-23T22:01:17.635Z,5.22
2022-09-23T22:03:50.652Z,5.25
2022-09-23T22:06:21.355Z,4.78
2022-09-23T22:08:50.954Z,4.65
2022-09-23T22:11:38.536Z,4.40
2022-09-23T22:14:07.509Z,4.72
2022-09-23T22:16:34.334Z,5.07
2022-09-23T22:19:01.187Z,4.57
2022-09-23T22:21:30.120Z,4.63
2022-09-23T22:23:58.324Z,4.00
2022-09-23T22:26:25.122Z,4.20
2022-09-23T22:29:10.183Z,4.60
2022-09-23T22:31:55.363Z,4.70
2022-09-23T22:34:48.619Z,4.50
2022-09-23T22:37:26.225Z,4.57
2022-09-23T22:39:53.385Z,4.32
2022-09-23T22:42:22.202Z,4.50
2022-09-23T22:44:49.068Z,5.07
2022-09-23T22:47:17.557Z,4.53
2022-09-23T22:49:44.088Z,5.22
2022-09-23T22:52:11.327Z,5.18
2022-09-23T22:54:38.560Z,4.90
2022-09-23T22:57:07.095Z,4.75
2022-09-23T22:59:34.391Z,4.88
2022-09-23T23:02:02.953Z,5.03
2022-09-23T23:04:30.097Z,5.05
2022-09-23T23:06:58.457Z,5.38
2022-09-23T23:09:25.147Z,5.70
2022-09-23T23:11:51.553Z,8.23
2022-09-23T23:14:18.612Z,7.35
2022-09-23T23:16:46.337Z,5.75
2022-09-23T23:19:16.443Z,6.18
2022-09-23T23:21:44.135Z,6.15
2022-09-23T23:24:15.648Z,8.27
2022-09-23T23:26:42.692Z,6.93
2022-09-23T23:29:13.961Z,7.10
2022-09-23T23:31:41.104Z,4.47
2022-09-23T23:34:12.113Z,3.90
2022-09-23T23:36:39.371Z,3.83
2022-09-23T23:39:06.909Z,4.57
2022-09-23T23:41:33.440Z,5.32
2022-09-23T23:44:01.110Z,5.65
2022-09-23T23:46:30.056Z,4.82
2022-09-23T23:48:57.805Z,4.25
2022-09-23T23:51:27.625Z,4.82
2022-09-23T23:53:55.398Z,4.35
2022-09-23T23:56:26.576Z,4.53
2022-09-23T23:58:57.926Z,4.05
